Time;durP1;ratioP1;P1;durP2;ratioP2;P2;SDS_P1;SDS_P2;PMS_P1;PMS_P2;Temp;Humidity;BMP_temperature;BMP_pressure;BME280_temperature;BME280_humidity;BME280_pressure;Samples;Min_cycle;Max_cycle;Signal;HPM_P1;HPM_P2
2022/01/31 00:02:14;;;;;;;14.73;3.37;;;;;;;1.44;100.00;100209.87;5015559;58;1139627;-74
2022/01/31 00:07:19;;;;;;;14.23;2.40;;;;;;;1.40;100.00;100215.66;5011610;58;1139044;-71
2022/01/31 00:12:30;;;;;;;15.50;3.40;;;;;;;1.36;100.00;100208.08;5103930;57;1139260;-71
2022/01/31 00:17:32;;;;;;;23.38;4.12;;;;;;;1.35;100.00;100209.84;5070600;57;1139053;-74
2022/01/31 00:22:37;;;;;;;37.40;4.40;;;;;;;1.34;100.00;100209.91;5071906;57;1139221;-74
2022/01/31 00:27:44;;;;;;;11.13;2.37;;;;;;;1.29;100.00;100206.19;5059420;58;1139109;-74
2022/01/31 00:32:50;;;;;;;12.47;2.17;;;;;;;1.24;100.00;100195.12;4978111;58;1139292;-71
2022/01/31 00:37:56;;;;;;;16.23;3.20;;;;;;;1.25;100.00;100166.85;5014387;57;1139285;-73
2022/01/31 00:43:03;;;;;;;14.90;3.33;;;;;;;1.22;100.00;100167.47;5015109;58;1139369;-69
2022/01/31 00:48:15;;;;;;;15.87;2.67;;;;;;;1.08;100.00;100154.19;5016467;58;1139198;-72
2022/01/31 00:53:16;;;;;;;28.77;3.43;;;;;;;1.16;100.00;100166.44;5050627;58;1139126;-68
2022/01/31 00:58:22;;;;;;;10.90;3.37;;;;;;;1.12;100.00;100154.45;5051537;58;1139190;-75
2022/01/31 01:03:28;;;;;;;17.75;3.33;;;;;;;1.07;100.00;100152.05;5051674;58;1139369;-77
2022/01/31 01:08:34;;;;;;;17.60;3.43;;;;;;;1.06;100.00;100154.29;5051790;58;1139388;-70
2022/01/31 01:13:40;;;;;;;12.33;2.83;;;;;;;1.00;100.00;100150.19;5053242;58;1139064;-74
2022/01/31 01:18:46;;;;;;;13.67;2.50;;;;;;;0.98;100.00;100162.42;5053252;58;1139312;-70
2022/01/31 01:23:52;;;;;;;17.20;3.10;;;;;;;0.94;100.00;100146.99;5095839;57;1139074;-73
2022/01/31 01:28:58;;;;;;;10.67;2.70;;;;;;;0.91;100.00;100145.40;5136113;57;1139015;-71
2022/01/31 01:34:04;;;;;;;13.88;3.12;;;;;;;0.89;100.00;100128.15;4968222;59;1137045;-73
2022/01/31 01:39:09;;;;;;;22.80;4.40;;;;;;;0.87;100.00;100136.02;5047038;58;1137064;-76
2022/01/31 01:44:16;;;;;;;17.40;3.17;;;;;;;0.86;100.00;100135.63;4904287;59;1137030;-74
2022/01/31 01:49:22;;;;;;;16.93;2.53;;;;;;;0.84;100.00;100133.55;4907263;59;1137267;-74
2022/01/31 01:54:28;;;;;;;22.77;3.23;;;;;;;0.80;100.00;100135.89;4885403;60;1137040;-75
2022/01/31 01:59:36;;;;;;;20.00;3.23;;;;;;;0.76;100.00;100126.55;4889414;60;1137147;-71
2022/01/31 02:05:01;;;;;;;16.25;2.77;;;;;;;0.73;100.00;100114.11;4963590;59;1136973;-74
2022/01/31 02:10:14;;;;;;;13.53;3.33;;;;;;;0.71;100.00;100121.98;4956630;59;1137187;-75
2022/01/31 02:15:26;;;;;;;14.38;2.77;;;;;;;0.72;100.00;100109.82;4956408;59;1137481;-72
2022/01/31 02:20:41;;;;;;;12.20;3.17;;;;;;;0.72;100.00;100098.95;4942000;59;1137633;-68
2022/01/31 02:26:03;;;;;;;18.43;3.50;;;;;;;0.69;100.00;100102.53;4884811;59;1135222;-69
2022/01/31 02:31:16;;;;;;;13.03;2.80;;;;;;;0.67;100.00;100085.28;4828184;60;1139239;-72
2022/01/31 02:36:24;;;;;;;18.00;2.70;;;;;;;0.64;100.00;100068.50;4977928;59;1139212;-69
2022/01/31 02:41:30;;;;;;;14.33;2.70;;;;;;;0.59;100.00;100059.62;5007846;58;1139173;-70
2022/01/31 02:46:36;;;;;;;19.27;3.62;;;;;;;0.56;100.00;100051.94;4958572;57;1139067;-71
2022/01/31 02:51:46;;;;;;;17.63;3.10;;;;;;;0.53;100.00;100041.66;4957325;57;1139027;-73
2022/01/31 02:56:50;;;;;;;7.03;1.67;;;;;;;0.55;100.00;100035.09;4958011;57;1139145;-72
2022/01/31 03:01:56;;;;;;;18.33;3.40;;;;;;;0.55;100.00;100027.29;4946218;57;1136942;-72
2022/01/31 03:07:02;;;;;;;8.27;2.17;;;;;;;0.53;100.00;100010.89;4968020;58;1139275;-71
2022/01/31 03:12:09;;;;;;;12.47;3.20;;;;;;;0.50;100.00;100010.57;5032863;58;1137388;-75
2022/01/31 03:17:17;;;;;;;11.90;3.83;;;;;;;0.52;100.00;100006.60;5032109;58;1139246;-69
2022/01/31 03:22:24;;;;;;;18.70;2.40;;;;;;;0.50;100.00;99988.45;5032396;58;1139143;-75
2022/01/31 03:27:30;;;;;;;17.43;2.90;;;;;;;0.47;100.00;99979.48;5029034;58;1136973;-73
2022/01/31 03:32:36;;;;;;;14.47;3.00;;;;;;;0.50;100.00;99978.51;5028338;58;1137106;-71
2022/01/31 03:37:42;;;;;;;9.10;4.47;;;;;;;0.52;100.00;99962.37;5029187;58;1136977;-73
2022/01/31 03:42:49;;;;;;;10.70;2.40;;;;;;;0.51;100.00;99957.63;5003885;58;1134918;-70
2022/01/31 03:47:57;;;;;;;17.13;2.97;;;;;;;0.54;100.00;99950.99;5057425;57;1136904;-74
2022/01/31 03:53:02;;;;;;;24.70;3.60;;;;;;;0.54;100.00;99945.78;5032380;58;1136967;-70
2022/01/31 03:58:09;;;;;;;19.57;2.90;;;;;;;0.53;100.00;99923.73;5033473;58;1136907;-74
2022/01/31 04:03:23;;;;;;;13.60;2.87;;;;;;;0.49;100.00;99898.31;5090530;57;1137053;-72
2022/01/31 04:08:28;;;;;;;12.17;2.57;;;;;;;0.53;100.00;99907.67;4956538;59;1137205;-75
2022/01/31 04:13:33;;;;;;;14.17;2.53;;;;;;;0.55;100.00;99894.59;4948657;59;1137202;-72
2022/01/31 04:18:38;;;;;;;16.97;2.57;;;;;;;0.56;100.00;99903.63;5034213;58;1136858;-73
2022/01/31 04:23:43;;;;;;;7.13;1.43;;;;;;;0.59;100.00;99894.84;4958471;58;1137174;-76
2022/01/31 04:28:51;;;;;;;22.37;4.73;;;;;;;0.58;100.00;99890.09;4996712;58;1134880;-71
2022/01/31 04:33:55;;;;;;;20.17;3.20;;;;;;;0.59;100.00;99881.84;4957025;59;1137060;-74
2022/01/31 04:39:01;;;;;;;7.90;2.03;;;;;;;0.58;100.00;99878.39;4957371;59;1136907;-74
2022/01/31 04:44:07;;;;;;;18.48;2.77;;;;;;;0.57;100.00;99869.35;4971570;58;1134920;-74
2022/01/31 04:49:13;;;;;;;17.03;3.00;;;;;;;0.57;100.00;99857.19;4934909;58;1137082;-74
2022/01/31 04:54:18;;;;;;;18.77;2.73;;;;;;;0.57;100.00;99847.23;4898480;59;1136991;-73
2022/01/31 04:59:23;;;;;;;10.07;2.03;;;;;;;0.53;100.00;99848.30;4898704;59;1136968;-73
2022/01/31 05:04:27;;;;;;;13.23;2.70;;;;;;;0.51;100.00;99854.86;4898782;59;1136930;-77
2022/01/31 05:09:34;;;;;;;12.87;2.53;;;;;;;0.51;100.00;99847.06;4898538;59;1136932;-74
2022/01/31 05:14:39;;;;;;;10.87;2.67;;;;;;;0.48;100.00;99836.79;4898492;59;1136953;-75
2022/01/31 05:19:44;;;;;;;19.50;3.03;;;;;;;0.47;100.00;99837.70;4898249;59;1136992;-74
2022/01/31 05:24:49;;;;;;;18.83;4.33;;;;;;;0.48;100.00;99835.49;4953255;58;1135165;-74
2022/01/31 05:29:54;;;;;;;16.03;2.57;;;;;;;0.45;100.00;99820.05;4976320;58;1134827;-73
2022/01/31 05:35:01;;;;;;;17.87;2.77;;;;;;;0.48;100.00;99821.19;4976678;58;1134780;-70
2022/01/31 05:40:07;;;;;;;15.37;4.47;;;;;;;0.50;100.00;99823.72;4981863;58;1134692;-72
2022/01/31 05:45:12;;;;;;;17.93;2.37;;;;;;;0.51;100.00;99821.50;4967423;58;1134819;-74
2022/01/31 05:50:17;;;;;;;18.47;3.37;;;;;;;0.52;100.00;99804.52;5165453;56;1134962;-74
2022/01/31 05:55:21;;;;;;;12.17;2.33;;;;;;;0.55;100.00;99813.48;5138932;55;1134840;-77
2022/01/31 06:00:26;;;;;;;14.23;3.10;;;;;;;0.56;100.00;99800.86;5140624;55;1134780;-81
2022/01/31 06:05:33;;;;;;;10.70;3.10;;;;;;;0.56;100.00;99798.72;5139533;55;1134934;-76
2022/01/31 06:10:43;;;;;;;11.30;2.37;;;;;;;0.55;100.00;99791.83;5138022;55;1134827;-72
2022/01/31 06:15:45;;;;;;;14.47;2.87;;;;;;;0.56;100.00;99795.66;5013122;57;1134881;-74
2022/01/31 06:20:51;;;;;;;17.45;2.80;;;;;;;0.56;100.00;99783.11;4897914;59;1134790;-72
2022/01/31 06:25:57;;;;;;;16.77;4.30;;;;;;;0.57;100.00;99781.73;4959424;58;1135163;-73
2022/01/31 06:31:02;;;;;;;21.87;3.43;;;;;;;0.59;100.00;99777.77;4972773;58;1134825;-75
2022/01/31 06:36:08;;;;;;;28.17;5.67;;;;;;;0.59;100.00;99777.77;4968934;58;1134845;-73
2022/01/31 06:41:17;;;;;;;23.33;3.50;;;;;;;0.61;100.00;99766.83;5059749;56;1134926;-75
2022/01/31 06:46:22;;;;;;;19.33;3.23;;;;;;;0.60;100.00;99758.63;5057623;57;1135124;-74
2022/01/31 06:51:28;;;;;;;23.70;3.70;;;;;;;0.58;100.00;99742.25;4973401;58;1134986;-74
2022/01/31 06:56:38;;;;;;;17.17;3.87;;;;;;;0.58;100.00;99744.39;4958886;59;1135036;-73
2022/01/31 07:01:42;;;;;;;18.33;3.87;;;;;;;0.59;100.00;99729.63;4982158;57;1132735;-72
2022/01/31 07:06:48;;;;;;;19.90;3.43;;;;;;;0.61;100.00;99719.99;5104253;57;1132765;-71
2022/01/31 07:11:57;;;;;;;17.67;3.60;;;;;;;0.62;100.00;99718.59;5198282;56;1137379;-73
2022/01/31 07:17:05;;;;;;;16.00;4.10;;;;;;;0.62;100.00;99704.73;5115726;57;1136815;-78
2022/01/31 07:22:13;;;;;;;17.35;3.20;;;;;;;0.65;100.00;99704.13;5117325;56;1137094;-74
2022/01/31 07:27:18;;;;;;;25.57;3.87;;;;;;;0.65;100.00;99698.08;5119452;56;1136941;-74
2022/01/31 07:32:24;;;;;;;17.10;4.03;;;;;;;0.65;100.00;99691.12;5097548;57;1136846;-75
2022/01/31 07:37:30;;;;;;;15.07;3.67;;;;;;;0.66;100.00;99691.50;5207595;56;1136950;-80
2022/01/31 07:42:36;;;;;;;19.87;3.57;;;;;;;0.69;100.00;99683.55;5151652;57;1137087;-71
2022/01/31 07:47:42;;;;;;;23.70;3.80;;;;;;;0.72;100.00;99684.31;5177565;56;1136884;-76
2022/01/31 07:52:47;;;;;;;14.03;2.60;;;;;;;0.71;100.00;99676.97;5143402;56;1136556;-80
2022/01/31 07:57:53;;;;;;;20.13;5.70;;;;;;;0.72;100.00;99677.81;5129811;56;1137239;-78
2022/01/31 08:02:59;;;;;;;30.87;6.30;;;;;;;0.70;100.00;99670.08;5114448;57;1137128;-76
2022/01/31 08:08:05;;;;;;;22.83;5.00;;;;;;;0.76;100.00;99669.78;5118909;57;1136986;-73
2022/01/31 08:13:11;;;;;;;25.55;4.90;;;;;;;0.80;100.00;99671.74;5052093;57;1137015;-72
2022/01/31 08:18:17;;;;;;;136.27;63.17;;;;;;;0.81;100.00;99662.55;5110573;57;1137052;-72
2022/01/31 08:23:23;;;;;;;110.60;50.48;;;;;;;0.82;100.00;99649.09;5182085;56;1141126;-72
2022/01/31 08:28:41;;;;;;;97.27;64.10;;;;;;;0.83;100.00;99647.70;5169166;56;1141066;-76
2022/01/31 08:33:50;;;;;;;68.83;37.07;;;;;;;0.82;100.00;99647.33;5110309;57;1139392;-81
2022/01/31 08:38:54;;;;;;;23.17;8.33;;;;;;;0.90;100.00;99641.73;5162817;57;1138853;-75
2022/01/31 08:44:00;;;;;;;26.93;7.92;;;;;;;0.96;100.00;99631.83;5188223;56;1137121;-71
2022/01/31 08:49:06;;;;;;;35.57;10.40;;;;;;;1.04;100.00;99636.65;5108974;57;1136896;-80
2022/01/31 08:54:13;;;;;;;24.97;7.70;;;;;;;1.08;100.00;99616.01;5164392;56;1139062;-79
2022/01/31 08:59:23;;;;;;;38.67;6.40;;;;;;;1.08;100.00;99616.01;5162672;56;1136974;-74
2022/01/31 09:04:47;;;;;;;24.63;5.37;;;;;;;1.13;100.00;99616.62;5136756;57;1137082;-74
2022/01/31 09:09:40;;;;;;;33.53;4.33;;;;;;;1.15;100.00;99607.42;5169219;57;1136901;-77
2022/01/31 09:14:47;;;;;;;20.70;4.60;;;;;;;1.17;100.00;99601.22;5104942;57;1137052;-72
2022/01/31 09:19:52;;;;;;;23.60;4.50;;;;;;;1.23;100.00;99602.17;5116851;57;1136911;-74
2022/01/31 09:24:58;;;;;;;35.60;7.03;;;;;;;1.29;100.00;99596.64;5088952;57;1137043;-78
2022/01/31 09:30:06;;;;;;;24.33;4.43;;;;;;;1.34;100.00;99590.73;5092987;57;1137103;-75
2022/01/31 09:35:12;;;;;;;28.10;5.33;;;;;;;1.42;100.00;99591.59;5151834;56;1136873;-75
2022/01/31 09:40:21;;;;;;;25.15;8.70;;;;;;;1.46;100.00;99586.60;5172324;56;1136964;-78
2022/01/31 09:45:43;;;;;;;28.70;4.70;;;;;;;1.51;100.00;99596.32;5054087;57;1136974;-77
2022/01/31 09:50:34;;;;;;;26.90;5.00;;;;;;;1.57;100.00;99589.91;5076577;57;1136783;-76
2022/01/31 09:55:40;;;;;;;22.07;4.87;;;;;;;1.60;100.00;99579.32;5120282;57;1137030;-73
2022/01/31 10:00:45;;;;;;;22.30;3.93;;;;;;;1.66;100.00;99570.71;5161949;56;1134926;-75
2022/01/31 10:05:52;;;;;;;23.93;4.87;;;;;;;1.71;100.00;99573.87;5109989;57;1134954;-77
2022/01/31 10:11:02;;;;;;;35.17;5.67;;;;;;;1.78;100.00;99570.47;5041252;58;1134987;-75
2022/01/31 10:16:26;;;;;;;22.77;4.97;;;;;;;1.82;100.00;99573.29;5075153;57;1134888;-74
2022/01/31 10:21:31;;;;;;;31.53;4.97;;;;;;;1.93;100.00;99566.99;5135976;55;1134837;-77
2022/01/31 10:26:38;;;;;;;50.27;7.40;;;;;;;1.98;100.00;99564.97;5214406;56;1134926;-75
2022/01/31 10:32:03;;;;;;;33.80;6.30;;;;;;;2.05;100.00;99552.40;5214329;56;1134856;-78
2022/01/31 10:37:15;;;;;;;24.50;5.63;;;;;;;2.10;100.00;99549.91;5214831;56;1134827;-77
2022/01/31 10:53:12;;;;;;;24.50;5.45;;;;;;;2.28;100.00;99539.33;5126480;56;1136573;-79
2022/01/31 10:58:19;;;;;;;33.47;5.80;;;;;;;2.31;100.00;99528.69;5107163;57;1136978;-77
2022/01/31 11:03:34;;;;;;;38.97;5.80;;;;;;;2.30;100.00;99529.15;5094921;57;1136876;-78
2022/01/31 11:08:40;;;;;;;26.33;6.20;;;;;;;2.31;100.00;99526.08;5214010;56;1136883;-77
2022/01/31 11:13:49;;;;;;;24.17;5.37;;;;;;;2.36;100.00;99531.88;5158644;57;1136918;-77
2022/01/31 11:19:00;;;;;;;30.03;7.43;;;;;;;2.35;100.00;99523.20;5213488;56;1137082;-78
2022/01/31 11:24:19;;;;;;;23.40;6.13;;;;;;;2.39;100.00;99515.58;5117744;57;1137139;-78
2022/01/31 11:29:26;;;;;;;27.82;5.65;;;;;;;2.38;100.00;99515.66;5200030;56;1136981;-78
2022/01/31 11:34:33;;;;;;;38.43;14.37;;;;;;;2.41;100.00;99518.09;5153593;56;1137029;-78
2022/01/31 11:39:42;;;;;;;26.10;4.73;;;;;;;2.43;100.00;99512.32;5083710;56;1139108;-78
2022/01/31 11:45:04;;;;;;;25.07;5.23;;;;;;;2.42;100.00;99496.29;5163039;56;1136966;-78
2022/01/31 11:50:15;;;;;;;28.43;5.83;;;;;;;2.41;100.00;99498.06;5134599;56;1137174;-77
2022/01/31 11:55:24;;;;;;;49.27;23.73;;;;;;;2.38;100.00;99501.31;5202833;56;1137008;-78
2022/01/31 12:00:31;;;;;;;43.83;16.97;;;;;;;2.40;100.00;99492.93;5134313;56;1139270;-77
2022/01/31 12:05:38;;;;;;;42.00;11.43;;;;;;;2.42;100.00;99491.07;5027500;58;1139099;-78
2022/01/31 12:11:02;;;;;;;71.23;27.10;;;;;;;2.47;100.00;99490.30;5059158;57;1139334;-77
2022/01/31 12:16:23;;;;;;;43.43;10.67;;;;;;;2.50;100.00;99484.91;5103791;57;1138956;-80
2022/01/31 12:27:18;;;;;;;39.90;17.43;;;;;;;2.48;100.00;99475.86;5135184;56;1137080;-78
2022/01/31 12:32:35;;;;;;;37.33;8.60;;;;;;;2.51;100.00;99473.53;5191392;57;1136983;-77
2022/01/31 12:37:46;;;;;;;36.20;8.10;;;;;;;2.53;100.00;99473.45;5149290;56;1134927;-78
2022/01/31 12:48:23;;;;;;;29.03;6.13;;;;;;;2.56;100.00;99469.34;5133259;57;1136879;-78
2022/01/31 12:53:42;;;;;;;49.87;13.13;;;;;;;2.62;100.00;99471.09;5162382;56;1137205;-78
2022/01/31 12:59:01;;;;;;;28.50;7.00;;;;;;;2.61;100.00;99470.72;5137777;56;1139138;-78
2022/01/31 13:04:19;;;;;;;54.73;12.83;;;;;;;2.65;100.00;99480.52;5168775;56;1136962;-77
2022/01/31 13:09:28;;;;;;;39.23;9.73;;;;;;;2.67;100.00;99487.33;5176681;56;1138900;-77
2022/01/31 13:14:52;;;;;;;41.43;9.23;;;;;;;2.67;100.00;99491.70;5192944;56;1136922;-77
2022/01/31 13:20:02;;;;;;;41.60;9.17;;;;;;;2.67;100.00;99480.80;5070510;57;1137124;-77
2022/01/31 13:25:16;;;;;;;40.47;10.10;;;;;;;2.64;100.00;99478.38;5073127;57;1137016;-77
2022/01/31 13:30:26;;;;;;;35.10;6.45;;;;;;;2.71;100.00;99476.23;5146845;56;1139300;-78
2022/01/31 13:35:33;;;;;;;38.70;10.50;;;;;;;2.72;100.00;99476.61;5154967;56;1137015;-77
2022/01/31 13:40:50;;;;;;;62.50;25.27;;;;;;;2.80;100.00;99480.88;5142093;56;1139369;-78
2022/01/31 13:51:32;;;;;;;35.50;8.00;;;;;;;2.94;100.00;99479.54;5085735;57;1138996;-77
2022/01/31 13:56:43;;;;;;;36.80;8.90;;;;;;;2.99;100.00;99484.02;5082962;57;1134829;-77
2022/01/31 14:01:49;;;;;;;42.90;11.90;;;;;;;3.00;100.00;99485.70;5115953;57;1134785;-77
2022/01/31 14:06:55;;;;;;;39.50;16.40;;;;;;;3.06;100.00;99491.82;5100117;57;1137033;-77
2022/01/31 14:12:03;;;;;;;87.90;41.00;;;;;;;3.09;100.00;99479.03;5114109;57;1136832;-77
2022/01/31 14:17:09;;;;;;;163.83;73.03;;;;;;;3.11;100.00;99483.23;5103367;57;1137086;-80
2022/01/31 14:22:17;;;;;;;125.93;78.37;;;;;;;3.10;100.00;99480.72;5205666;56;1139558;-79
2022/01/31 14:27:25;;;;;;;38.37;13.03;;;;;;;3.08;100.00;99483.42;5057227;57;1139112;-77
2022/01/31 14:32:33;;;;;;;55.87;19.30;;;;;;;3.07;100.00;99483.52;5038288;58;1136983;-77
2022/01/31 14:37:52;;;;;;;83.47;46.33;;;;;;;3.04;100.00;99483.73;5033597;57;1136900;-77
2022/01/31 14:47:14;;;;;;;170.70;78.07;;;;;;;3.01;100.00;99485.23;5027550;58;1136909;-77
2022/01/31 14:48:33;;;;;;;71.23;27.73;;;;;;;3.04;100.00;99489.80;5128557;57;1141173;-79
2022/01/31 14:53:38;;;;;;;70.40;26.20;;;;;;;3.03;100.00;99489.42;5128777;56;1138919;-79
2022/01/31 14:58:44;;;;;;;109.73;40.80;;;;;;;3.00;100.00;99496.61;5169556;56;1139261;-77
2022/01/31 15:03:50;;;;;;;78.97;26.80;;;;;;;2.96;100.00;99497.27;5184805;56;1141223;-77
2022/01/31 15:08:56;;;;;;;123.90;43.17;;;;;;;2.95;100.00;99508.64;5144519;57;1138896;-80
2022/01/31 15:14:02;;;;;;;137.27;50.20;;;;;;;2.96;100.00;99518.63;5143990;57;1141390;-78
2022/01/31 15:19:07;;;;;;;116.17;32.43;;;;;;;2.97;100.00;99514.61;5136026;56;1141415;-77
2022/01/31 15:24:15;;;;;;;82.80;24.25;;;;;;;3.01;100.00;99521.33;5071580;56;1141341;-78
2022/01/31 15:29:21;;;;;;;92.60;30.97;;;;;;;2.98;100.00;99521.52;5071013;56;1139350;-77
2022/01/31 15:34:26;;;;;;;63.47;19.43;;;;;;;2.89;100.00;99519.95;5069518;57;1139543;-78
2022/01/31 15:39:36;;;;;;;505.50;161.60;;;;;;;2.82;100.00;99526.84;5066401;57;1139257;-77
2022/01/31 15:44:53;;;;;;;115.93;38.77;;;;;;;2.84;100.00;99526.75;5067823;57;1143435;-78
2022/01/31 15:49:51;;;;;;;86.77;30.00;;;;;;;2.83;100.00;99525.08;5030927;57;1141228;-74
2022/01/31 15:54:56;;;;;;;76.70;27.80;;;;;;;2.89;100.00;99535.16;5072905;57;1139102;-75
2022/01/31 16:00:02;;;;;;;80.87;30.93;;;;;;;2.87;100.00;99547.47;4987240;58;1138987;-77
2022/01/31 16:05:08;;;;;;;100.97;32.87;;;;;;;2.81;100.00;99555.20;5118670;56;1139273;-75
2022/01/31 16:10:14;;;;;;;92.45;30.90;;;;;;;2.68;100.00;99563.41;5069222;56;1141036;-78
2022/01/31 16:15:21;;;;;;;87.20;32.20;;;;;;;2.64;100.00;99573.65;5080559;56;1139196;-76
2022/01/31 16:20:28;;;;;;;97.47;35.00;;;;;;;2.70;100.00;99571.98;5124026;56;1138991;-74
2022/01/31 16:25:34;;;;;;;98.67;36.27;;;;;;;2.72;100.00;99574.51;5149894;57;1139411;-77
2022/01/31 16:30:39;;;;;;;101.87;36.90;;;;;;;2.70;100.00;99571.98;5154449;57;1138981;-77
2022/01/31 16:35:45;;;;;;;129.97;40.03;;;;;;;2.70;100.00;99573.30;5154266;57;1141114;-74
2022/01/31 16:40:51;;;;;;;88.37;33.10;;;;;;;2.67;100.00;99577.85;5143118;57;1141203;-78
2022/01/31 16:45:58;;;;;;;59.30;19.53;;;;;;;2.51;100.00;99601.42;5140937;57;1139151;-75
2022/01/31 16:51:04;;;;;;;64.03;19.27;;;;;;;2.39;100.00;99616.03;5135603;57;1139681;-77
2022/01/31 16:56:10;;;;;;;129.70;35.37;;;;;;;2.22;100.00;99626.61;5135678;57;1139497;-74
2022/01/31 17:01:15;;;;;;;93.45;24.63;;;;;;;2.10;100.00;99622.94;5134721;57;1141155;-73
2022/01/31 17:06:21;;;;;;;68.10;20.07;;;;;;;2.03;100.00;99633.79;5051719;57;1139172;-79
2022/01/31 17:11:28;;;;;;;73.70;22.90;;;;;;;1.98;100.00;99639.29;5051706;58;1139274;-74
2022/01/31 17:16:34;;;;;;;79.40;29.57;;;;;;;1.91;100.00;99644.45;5051618;58;1139093;-75
2022/01/31 17:21:43;;;;;;;87.55;32.17;;;;;;;1.83;100.00;99642.75;4976833;58;1139061;-74
2022/01/31 17:26:48;;;;;;;139.70;61.73;;;;;;;1.79;100.00;99650.36;5051225;58;1138998;-74
2022/01/31 17:31:54;;;;;;;70.07;24.23;;;;;;;1.82;100.00;99657.17;5002377;58;1141377;-76
2022/01/31 17:37:00;;;;;;;77.23;29.00;;;;;;;1.76;100.00;99660.48;4967807;59;1139085;-78
2022/01/31 17:42:10;;;;;;;71.73;25.70;;;;;;;1.70;100.00;99680.36;4969407;59;1138449;-78
2022/01/31 17:47:16;;;;;;;67.03;21.03;;;;;;;1.69;100.00;99673.47;4986654;57;1139111;-75
2022/01/31 17:52:21;;;;;;;80.27;26.13;;;;;;;1.74;100.00;99676.67;5038028;58;1137232;-73
2022/01/31 17:57:27;;;;;;;89.07;28.20;;;;;;;1.78;100.00;99675.20;5042028;58;1137003;-76
2022/01/31 18:02:33;;;;;;;93.50;33.87;;;;;;;1.84;100.00;99676.16;5042153;58;1137069;-79
2022/01/31 18:07:39;;;;;;;189.07;72.33;;;;;;;1.75;100.00;99680.96;5042761;57;1137153;-74
2022/01/31 18:12:45;;;;;;;180.83;63.30;;;;;;;1.62;100.00;99701.27;5045214;58;1139038;-74
2022/01/31 18:17:51;;;;;;;92.47;30.20;;;;;;;1.50;100.00;99702.77;5047597;58;1139053;-74
2022/01/31 18:22:57;;;;;;;234.30;86.77;;;;;;;1.42;100.00;99719.25;5044087;58;1137069;-77
2022/01/31 18:28:02;;;;;;;311.50;105.97;;;;;;;1.32;100.00;99719.37;5048836;58;1139349;-77
2022/01/31 18:33:09;;;;;;;71.83;27.57;;;;;;;1.24;100.00;99711.94;5048626;58;1141197;-79
2022/01/31 18:38:15;;;;;;;96.03;34.37;;;;;;;1.24;100.00;99724.96;5048785;58;1137451;-80
2022/01/31 18:43:20;;;;;;;93.80;34.80;;;;;;;1.22;100.00;99722.89;5048848;58;1137049;-79
2022/01/31 18:48:27;;;;;;;83.87;31.17;;;;;;;1.25;100.00;99716.69;5048670;58;1136901;-75
2022/01/31 18:53:34;;;;;;;120.73;39.37;;;;;;;1.26;100.00;99714.47;5048646;57;1136981;-76
2022/01/31 18:58:41;;;;;;;89.77;35.53;;;;;;;1.26;100.00;99709.26;5048755;58;1139106;-76
2022/01/31 19:03:47;;;;;;;114.63;40.43;;;;;;;1.22;100.00;99720.78;5048727;58;1136984;-74
2022/01/31 19:08:53;;;;;;;96.47;37.13;;;;;;;1.28;100.00;99724.34;5047808;57;1139178;-77
2022/01/31 19:14:13;;;;;;;207.50;65.37;;;;;;;1.40;100.00;99734.97;5095262;57;1137132;-73
2022/01/31 19:19:06;;;;;;;85.25;32.48;;;;;;;1.36;100.00;99741.28;5122079;57;1139064;-72
2022/01/31 19:24:12;;;;;;;100.50;38.17;;;;;;;1.31;100.00;99747.18;5116821;57;1134860;-76
2022/01/31 19:29:20;;;;;;;100.60;37.67;;;;;;;1.28;100.00;99754.30;5115379;57;1137085;-76
2022/01/31 19:34:26;;;;;;;232.60;80.00;;;;;;;1.36;100.00;99755.61;5080628;57;1141023;-76
2022/01/31 19:44:39;;;;;;;215.83;80.77;;;;;;;1.40;100.00;99775.34;5025019;57;1141043;-79
2022/01/31 19:49:44;;;;;;;186.53;70.70;;;;;;;1.44;100.00;99782.55;5108788;57;1141095;-77
2022/01/31 19:54:50;;;;;;;202.10;74.97;;;;;;;1.47;100.00;99795.89;5108757;57;1141146;-76
2022/01/31 19:59:56;;;;;;;181.60;74.17;;;;;;;1.43;100.00;99804.31;5105755;57;1141346;-77
2022/01/31 20:05:02;;;;;;;183.27;73.47;;;;;;;1.42;100.00;99803.93;5118868;57;1141104;-74
2022/01/31 20:10:09;;;;;;;168.95;67.20;;;;;;;1.34;100.00;99817.36;5125636;57;1141139;-72
2022/01/31 20:15:16;;;;;;;226.83;80.43;;;;;;;1.24;100.00;99829.15;5118349;57;1141343;-76
2022/01/31 20:20:21;;;;;;;277.50;95.60;;;;;;;1.21;100.00;99827.19;5118245;57;1141105;-76
2022/01/31 20:25:27;;;;;;;223.13;75.90;;;;;;;1.20;100.00;99831.55;5115952;57;1141158;-74
2022/01/31 20:30:35;;;;;;;201.10;70.73;;;;;;;1.18;100.00;99847.70;5118045;57;1141174;-78
2022/01/31 20:35:44;;;;;;;184.03;65.53;;;;;;;1.16;100.00;99859.11;5110989;57;1141439;-77
2022/01/31 20:45:56;;;;;;;176.10;64.00;;;;;;;1.09;100.00;99857.72;5114933;57;1141367;-71
2022/01/31 20:51:02;;;;;;;182.83;63.17;;;;;;;0.88;100.00;99866.98;5128170;57;1141232;-83
2022/01/31 20:56:08;;;;;;;175.60;63.42;;;;;;;0.77;100.00;99873.59;5143309;57;1141382;-77
2022/01/31 21:01:14;;;;;;;176.67;55.97;;;;;;;0.66;100.00;99882.77;5143328;57;1141184;-80
2022/01/31 21:06:20;;;;;;;164.40;55.70;;;;;;;0.44;100.00;99883.86;5146039;56;1140979;-74
2022/01/31 21:11:29;;;;;;;132.77;44.27;;;;;;;0.40;100.00;99878.39;5152540;56;1141124;-77
2022/01/31 21:16:33;;;;;;;155.10;47.50;;;;;;;0.41;100.00;99888.73;5095433;57;1141138;-73
2022/01/31 21:21:39;;;;;;;126.67;40.93;;;;;;;0.30;100.00;99902.70;5148983;56;1141046;-70
2022/01/31 21:26:45;;;;;;;68.80;27.47;;;;;;;0.15;100.00;99905.53;5141873;56;1141490;-78
2022/01/31 21:31:51;;;;;;;82.33;32.80;;;;;;;0.05;100.00;99914.63;5048653;57;1139428;-71
2022/01/31 21:36:57;;;;;;;91.80;33.63;;;;;;;-0.01;100.00;99916.22;5143493;57;1139260;-68
2022/01/31 21:42:03;;;;;;;80.37;32.93;;;;;;;-0.05;100.00;99923.30;5147655;56;1141450;-72
2022/01/31 21:47:10;;;;;;;148.37;57.60;;;;;;;-0.08;100.00;99931.68;5142500;56;1141136;-69
2022/01/31 21:52:16;;;;;;;134.60;55.70;;;;;;;0.00;100.00;99924.41;5117623;56;1143321;-72
2022/01/31 21:57:24;;;;;;;116.63;42.83;;;;;;;0.10;100.00;99935.23;5110350;56;1141049;-72
2022/01/31 22:02:29;;;;;;;132.10;48.33;;;;;;;0.06;100.00;99924.58;5107438;56;1141144;-69
2022/01/31 22:07:36;;;;;;;101.33;38.77;;;;;;;-0.10;100.00;99933.05;5104794;56;1141076;-69
2022/01/31 22:12:42;;;;;;;103.77;40.53;;;;;;;-0.15;100.00;99933.69;5090161;56;1143086;-72
2022/01/31 22:17:50;;;;;;;99.47;35.17;;;;;;;-0.13;100.00;99929.27;5096384;56;1143418;-70
2022/01/31 22:22:56;;;;;;;103.67;35.87;;;;;;;-0.10;100.00;99939.99;5093893;57;1141264;-69
2022/01/31 22:28:03;;;;;;;102.20;37.17;;;;;;;-0.17;100.00;99939.44;5108623;57;1143421;-68
2022/01/31 22:33:10;;;;;;;93.17;29.40;;;;;;;-0.10;100.00;99942.59;5099923;56;1143171;-69
2022/01/31 22:38:16;;;;;;;79.00;27.93;;;;;;;-0.20;100.00;99947.80;5121777;57;1140678;-70
2022/01/31 22:43:23;;;;;;;115.90;37.93;;;;;;;-0.15;100.00;99940.63;5102264;57;1139097;-69
2022/01/31 22:48:28;;;;;;;130.10;38.70;;;;;;;-0.20;100.00;99929.62;5123345;57;1141354;-69
2022/01/31 22:53:34;;;;;;;140.57;39.88;;;;;;;-0.12;100.00;99938.75;5137777;57;1141138;-68
2022/01/31 22:58:40;;;;;;;133.37;39.37;;;;;;;-0.05;100.00;99940.20;5145107;56;1141087;-69
2022/01/31 23:03:47;;;;;;;111.20;36.43;;;;;;;-0.03;100.00;99947.48;5083448;57;1141107;-70
2022/01/31 23:08:52;;;;;;;96.77;31.83;;;;;;;0.01;100.00;99953.36;5062332;58;1141221;-68
2022/01/31 23:14:07;;;;;;;142.33;46.30;;;;;;;0.03;100.00;99952.84;5061855;58;1137197;-70
2022/01/31 23:19:22;;;;;;;95.83;32.13;;;;;;;0.09;100.00;99963.44;5062445;56;1138997;-71
2022/01/31 23:51:43;;;;;;;46.85;20.95;;;;;;;-0.54;100.00;99990.77;5121411;57;1141040;-68
